Terminal Aerodrome Forecast
Issued by NWS

Home | Current Version | Previous Version | Text Only | Print | Product List | Glossary Off
Versions: 1 2 3 4 5 6 7 8 9 10 11 12 13 14 15 16 17

716
FTUS43 KICT 191739 AAA
TAFSLN
TAF AMD
KSLN 191739Z 1918/2018 12007KT P6SM BKN040
     FM192000 34007KT P6SM BKN070
     FM192100 35008KT P6SM VCTS SCT060CB
      TEMPO 1922/2001 2SM TSRA OVC030CB
     FM200100 34009KT P6SM VCTS BKN100CB
     FM200600 32012KT P6SM VCTS BKN025CB
     FM200900 31009KT P6SM BKN020=

USA.gov is the U.S. government's official web portal to all federal, state and local government web resources and services.